createdAt,value
2019-04-27T00:00:18.282Z,929.92
2019-04-27T00:01:18.321Z,929.91
2019-04-27T00:02:24.843Z,929.90
2019-04-27T00:03:18.433Z,929.94
2019-04-27T00:04:19.177Z,929.99
2019-04-27T00:05:18.520Z,930.02
2019-04-27T00:06:18.575Z,930.02
2019-04-27T00:07:21.225Z,930.00
2019-04-27T00:08:18.637Z,930.02
2019-04-27T00:09:18.707Z,930.06
2019-04-27T00:10:20.365Z,930.04
2019-04-27T00:11:18.786Z,930.08
2019-04-27T00:12:22.410Z,930.04
2019-04-27T00:13:18.857Z,930.06
2019-04-27T00:14:18.930Z,930.07
2019-04-27T00:15:18.982Z,930.06
2019-04-27T00:16:19.054Z,930.10
2019-04-27T00:17:21.009Z,930.09
2019-04-27T00:18:19.089Z,930.07
2019-04-27T00:19:19.150Z,930.09
2019-04-27T00:20:21.527Z,930.09
2019-04-27T00:21:19.250Z,930.11
2019-04-27T00:22:19.302Z,930.10
2019-04-27T00:23:19.349Z,930.11
2019-04-27T00:24:19.403Z,930.07
2019-04-27T00:25:19.460Z,930.09
2019-04-27T00:26:19.474Z,930.08
2019-04-27T00:27:19.522Z,930.08
2019-04-27T00:28:19.542Z,930.13
2019-04-27T00:29:19.619Z,930.14
2019-04-27T00:30:19.650Z,930.11
2019-04-27T00:31:19.685Z,930.13
2019-04-27T00:32:19.734Z,930.15
2019-04-27T00:33:19.846Z,930.13
2019-04-27T00:34:19.839Z,930.12
2019-04-27T00:35:19.878Z,930.11
2019-04-27T00:36:19.943Z,930.03
2019-04-27T00:37:19.996Z,930.05
2019-04-27T00:38:20.080Z,930.05
2019-04-27T00:39:20.122Z,930.05
2019-04-27T00:40:20.126Z,930.01
2019-04-27T00:41:20.194Z,930.01
2019-04-27T00:42:20.229Z,929.97
2019-04-27T00:43:20.314Z,929.96
2019-04-27T00:44:20.290Z,929.93
2019-04-27T00:45:20.394Z,929.94
2019-04-27T00:46:20.432Z,929.95
2019-04-27T00:47:20.429Z,929.94
2019-04-27T00:48:20.494Z,929.93
2019-04-27T00:49:20.526Z,929.95
2019-04-27T00:50:20.579Z,929.94
2019-04-27T00:51:20.620Z,929.88
2019-04-27T00:52:20.655Z,929.88
2019-04-27T00:53:20.714Z,929.88
2019-04-27T00:54:20.815Z,929.85
2019-04-27T00:55:20.820Z,929.87
2019-04-27T00:56:20.859Z,929.86
2019-04-27T00:57:20.916Z,929.86
2019-04-27T00:58:20.959Z,929.83
2019-04-27T00:59:21.041Z,929.84
2019-04-27T01:00:21.049Z,929.82
2019-04-27T01:01:21.083Z,929.82
2019-04-27T01:02:21.154Z,929.81
2019-04-27T01:03:22.858Z,929.81
2019-04-27T01:04:21.225Z,929.78
2019-04-27T01:05:23.042Z,929.79
2019-04-27T01:06:21.336Z,929.77
2019-04-27T01:07:22.748Z,929.76
2019-04-27T01:08:22.943Z,929.74
2019-04-27T01:09:21.473Z,929.74
2019-04-27T01:10:23.247Z,929.72
2019-04-27T01:11:22.673Z,929.72
2019-04-27T01:12:21.596Z,929.74
2019-04-27T01:13:23.032Z,929.74
2019-04-27T01:14:23.084Z,929.73
2019-04-27T01:15:23.687Z,929.76
2019-04-27T01:16:24.015Z,929.76
2019-04-27T01:17:21.833Z,929.74
2019-04-27T01:18:21.887Z,929.76
2019-04-27T01:19:21.934Z,929.78
2019-04-27T01:20:22.065Z,929.79
2019-04-27T01:21:22.004Z,929.78
2019-04-27T01:22:22.060Z,929.78
2019-04-27T01:23:22.125Z,929.76
2019-04-27T01:24:22.167Z,929.80
2019-04-27T01:25:22.202Z,929.81
2019-04-27T01:26:22.258Z,929.77
2019-04-27T01:27:22.282Z,929.75
2019-04-27T01:28:22.347Z,929.72
2019-04-27T01:29:22.379Z,929.74
2019-04-27T01:30:22.538Z,929.74
2019-04-27T01:31:22.494Z,929.73
2019-04-27T01:32:22.539Z,929.74
2019-04-27T01:33:22.580Z,929.77
2019-04-27T01:34:22.630Z,929.72
2019-04-27T01:35:22.684Z,929.76
2019-04-27T01:36:22.743Z,929.72
2019-04-27T01:37:22.788Z,929.72
2019-04-27T01:38:22.824Z,929.72
2019-04-27T01:39:22.838Z,929.71
2019-04-27T01:40:23.016Z,929.70
2019-04-27T01:41:22.964Z,929.70
2019-04-27T01:42:22.987Z,929.70
2019-04-27T01:43:23.039Z,929.64
2019-04-27T01:44:23.121Z,929.64
2019-04-27T01:45:23.246Z,929.63
2019-04-27T01:46:23.186Z,929.61
2019-04-27T01:47:23.411Z,929.63
2019-04-27T01:48:25.803Z,929.66
2019-04-27T01:49:23.306Z,929.67
2019-04-27T01:50:23.382Z,929.66
2019-04-27T01:51:23.422Z,929.67
2019-04-27T01:52:23.457Z,929.64
2019-04-27T01:53:23.486Z,929.65
2019-04-27T01:54:23.537Z,929.64
2019-04-27T01:55:23.712Z,929.58
2019-04-27T01:56:23.711Z,929.57
2019-04-27T01:57:23.695Z,929.55
2019-04-27T01:58:23.722Z,929.53
2019-04-27T01:59:23.771Z,929.47
2019-04-27T02:00:23.935Z,929.49
2019-04-27T02:01:23.893Z,929.46
2019-04-27T02:02:23.945Z,929.48
2019-04-27T02:03:23.986Z,929.40
2019-04-27T02:04:24.022Z,929.41
2019-04-27T02:05:24.075Z,929.40
2019-04-27T02:06:24.125Z,929.40
2019-04-27T02:07:24.277Z,929.37
2019-04-27T02:08:24.222Z,929.35
2019-04-27T02:09:24.241Z,929.35
2019-04-27T02:10:24.304Z,929.35
2019-04-27T02:11:24.386Z,929.39
2019-04-27T02:12:24.387Z,929.38
2019-04-27T02:13:24.545Z,929.42
2019-04-27T02:14:24.492Z,929.40
2019-04-27T02:15:24.511Z,929.40
2019-04-27T02:16:24.572Z,929.41
2019-04-27T02:17:24.610Z,929.38
2019-04-27T02:18:34.748Z,929.41
2019-04-27T02:19:24.800Z,929.30
2019-04-27T02:20:24.740Z,929.35
2019-04-27T02:21:24.835Z,929.32
2019-04-27T02:22:24.891Z,929.32
2019-04-27T02:23:24.881Z,929.37
2019-04-27T02:24:25.053Z,929.37
2019-04-27T02:25:24.981Z,929.38
2019-04-27T02:26:25.037Z,929.34
2019-04-27T02:27:25.067Z,929.34
2019-04-27T02:28:25.120Z,929.38
2019-04-27T02:29:25.174Z,929.35
2019-04-27T02:30:25.198Z,929.33
2019-04-27T02:31:25.258Z,929.36
2019-04-27T02:32:25.311Z,929.33
2019-04-27T02:33:25.399Z,929.33
2019-04-27T02:34:25.375Z,929.29
2019-04-27T02:35:25.548Z,929.30
2019-04-27T02:36:25.488Z,929.26
2019-04-27T02:37:25.543Z,929.20
2019-04-27T02:38:25.573Z,929.22
2019-04-27T02:39:25.628Z,929.22
2019-04-27T02:40:25.695Z,929.21
2019-04-27T02:41:25.709Z,929.21
2019-04-27T02:42:25.870Z,929.21
2019-04-27T02:43:25.819Z,929.20
2019-04-27T02:44:25.851Z,929.20
2019-04-27T02:45:25.905Z,929.21
2019-04-27T02:46:25.973Z,929.26
2019-04-27T02:47:26.044Z,929.23
2019-04-27T02:48:26.143Z,929.22
2019-04-27T02:49:26.115Z,929.20
2019-04-27T02:50:26.125Z,929.17
2019-04-27T02:51:26.166Z,929.19
2019-04-27T02:52:26.209Z,929.17
2019-04-27T02:53:26.242Z,929.18
2019-04-27T02:54:26.297Z,929.14
2019-04-27T02:55:26.368Z,929.13
2019-04-27T02:56:26.394Z,929.09
2019-04-27T02:57:26.450Z,929.10
2019-04-27T02:58:26.602Z,929.06
2019-04-27T02:59:26.541Z,929.09
2019-04-27T03:00:26.582Z,929.08
2019-04-27T03:01:26.653Z,929.10
2019-04-27T03:02:26.681Z,929.11
2019-04-27T03:03:26.762Z,929.10
2019-04-27T03:04:26.885Z,929.08
2019-04-27T03:05:29.496Z,929.06
2019-04-27T03:06:26.851Z,929.07
2019-04-27T03:07:26.895Z,929.04
2019-04-27T03:08:29.340Z,929.05
2019-04-27T03:09:27.033Z,929.03
2019-04-27T03:10:27.157Z,929.05
2019-04-27T03:11:27.075Z,929.02
2019-04-27T03:12:29.398Z,929.03
2019-04-27T03:13:27.190Z,929.04
2019-04-27T03:14:34.294Z,929.06
2019-04-27T03:15:27.257Z,929.07
2019-04-27T03:16:29.704Z,929.04
2019-04-27T03:17:27.388Z,929.01
2019-04-27T03:18:32.250Z,929.07
2019-04-27T03:19:29.832Z,929.04
2019-04-27T03:20:29.871Z,929.06
2019-04-27T03:21:29.690Z,929.06
2019-04-27T03:22:29.547Z,929.05
2019-04-27T03:23:30.293Z,929.05
2019-04-27T03:24:29.563Z,929.07
2019-04-27T03:25:30.336Z,929.11
2019-04-27T03:26:27.775Z,929.05
2019-04-27T03:27:30.144Z,929.03
2019-04-27T03:28:29.816Z,929.05
2019-04-27T03:29:30.479Z,929.06
2019-04-27T03:30:34.748Z,929.05
2019-04-27T03:31:32.326Z,929.04
2019-04-27T03:32:31.379Z,929.01
2019-04-27T03:33:31.998Z,929.05
2019-04-27T03:34:32.012Z,929.02
2019-04-27T03:35:35.036Z,929.03
2019-04-27T03:36:31.554Z,929.01
2019-04-27T03:37:30.319Z,928.99
2019-04-27T03:38:30.065Z,928.98
2019-04-27T03:39:29.982Z,928.95
2019-04-27T03:40:30.699Z,928.97
2019-04-27T03:41:29.286Z,928.97
2019-04-27T03:42:29.290Z,929.01
2019-04-27T03:43:30.253Z,928.95
2019-04-27T03:44:29.625Z,929.00
2019-04-27T03:45:29.804Z,929.00
2019-04-27T03:46:30.242Z,929.02
2019-04-27T03:47:30.729Z,929.05
2019-04-27T03:48:29.525Z,929.04
2019-04-27T03:49:37.480Z,929.05
2019-04-27T03:50:30.361Z,929.00
2019-04-27T03:51:29.984Z,929.03
2019-04-27T03:52:29.984Z,929.02
2019-04-27T03:53:29.843Z,929.00
2019-04-27T03:54:29.631Z,928.99
2019-04-27T03:55:30.557Z,928.99
2019-04-27T03:56:30.362Z,928.99
2019-04-27T03:57:29.781Z,928.97
2019-04-27T03:58:30.437Z,928.98
2019-04-27T03:59:29.515Z,928.95
2019-04-27T04:00:30.140Z,928.95
2019-04-27T04:01:30.231Z,928.96
2019-04-27T04:02:30.211Z,928.95
2019-04-27T04:03:29.778Z,928.96
2019-04-27T04:04:32.503Z,929.00
2019-04-27T04:05:30.181Z,928.99
2019-04-27T04:06:29.767Z,928.99
2019-04-27T04:07:30.123Z,929.00
2019-04-27T04:08:30.759Z,928.99
2019-04-27T04:09:29.771Z,929.00
2019-04-27T04:10:29.864Z,928.94
2019-04-27T04:11:30.440Z,928.92
2019-04-27T04:12:30.349Z,928.88
2019-04-27T04:13:30.087Z,928.85
2019-04-27T04:14:30.252Z,928.85
2019-04-27T04:15:30.069Z,928.80
2019-04-27T04:16:30.093Z,928.78
2019-04-27T04:17:31.057Z,928.78
2019-04-27T04:18:31.823Z,928.80
2019-04-27T04:19:47.454Z,928.77
2019-04-27T04:20:30.639Z,928.77
2019-04-27T04:21:30.330Z,928.74
2019-04-27T04:22:30.413Z,928.71
2019-04-27T04:23:30.363Z,928.68
2019-04-27T04:24:31.761Z,928.65
2019-04-27T04:25:33.230Z,928.64
2019-04-27T04:26:32.781Z,928.61
2019-04-27T04:27:30.590Z,928.62
2019-04-27T04:28:30.649Z,928.67
2019-04-27T04:29:30.917Z,928.61
2019-04-27T04:30:30.779Z,928.62
2019-04-27T04:31:33.104Z,928.61
2019-04-27T04:32:30.812Z,928.62
2019-04-27T04:33:30.878Z,928.61
2019-04-27T04:34:30.944Z,928.64
2019-04-27T04:35:33.305Z,928.65
2019-04-27T04:36:30.948Z,928.67
2019-04-27T04:37:31.043Z,928.67
2019-04-27T04:38:31.139Z,928.67
2019-04-27T04:39:31.136Z,928.67
2019-04-27T04:40:31.252Z,928.62
2019-04-27T04:41:31.183Z,928.63
2019-04-27T04:42:31.271Z,928.61
2019-04-27T04:43:31.333Z,928.61
2019-04-27T04:44:31.343Z,928.65
2019-04-27T04:45:31.435Z,928.61
2019-04-27T04:46:31.398Z,928.57
2019-04-27T04:47:31.433Z,928.62
2019-04-27T04:48:31.493Z,928.63
2019-04-27T04:49:31.549Z,928.60
2019-04-27T04:50:31.590Z,928.60
2019-04-27T04:51:31.634Z,928.57
2019-04-27T04:52:31.679Z,928.60
2019-04-27T04:53:31.734Z,928.61
2019-04-27T04:54:31.778Z,928.61
2019-04-27T04:55:31.822Z,928.63
2019-04-27T04:56:31.850Z,928.62
2019-04-27T04:57:31.918Z,928.62
2019-04-27T04:58:31.980Z,928.61
2019-04-27T04:59:32.047Z,928.63
2019-04-27T05:00:32.039Z,928.66
2019-04-27T05:01:32.086Z,928.70
2019-04-27T05:02:32.129Z,928.67
2019-04-27T05:03:32.170Z,928.67
2019-04-27T05:04:32.210Z,928.65
2019-04-27T05:05:32.251Z,928.62
2019-04-27T05:06:32.317Z,928.59
2019-04-27T05:07:32.348Z,928.56
2019-04-27T05:08:32.384Z,928.53
2019-04-27T05:09:32.451Z,928.50
2019-04-27T05:10:32.495Z,928.48
2019-04-27T05:11:32.542Z,928.47
2019-04-27T05:12:32.640Z,928.46
2019-04-27T05:13:32.632Z,928.45
2019-04-27T05:14:32.681Z,928.45
2019-04-27T05:15:32.708Z,928.47
2019-04-27T05:16:33.039Z,928.45
2019-04-27T05:17:32.829Z,928.44
2019-04-27T05:18:32.969Z,928.47
2019-04-27T05:19:32.915Z,928.48
2019-04-27T05:20:32.951Z,928.45
2019-04-27T05:21:33.005Z,928.49
2019-04-27T05:22:33.030Z,928.49
2019-04-27T05:23:33.096Z,928.49
2019-04-27T05:24:33.157Z,928.49
2019-04-27T05:25:33.170Z,928.46
2019-04-27T05:26:33.224Z,928.49
2019-04-27T05:27:33.283Z,928.43
2019-04-27T05:28:33.327Z,928.43
2019-04-27T05:29:33.375Z,928.46
2019-04-27T05:30:33.385Z,928.41
2019-04-27T05:31:33.464Z,928.40
2019-04-27T05:32:33.500Z,928.41
2019-04-27T05:33:33.543Z,928.41
2019-04-27T05:34:33.594Z,928.43
2019-04-27T05:35:33.629Z,928.43
2019-04-27T05:36:33.730Z,928.44
2019-04-27T05:37:33.772Z,928.40
2019-04-27T05:38:33.799Z,928.42
2019-04-27T05:39:33.809Z,928.41
2019-04-27T05:40:33.860Z,928.43
2019-04-27T05:41:37.533Z,928.44
2019-04-27T05:42:33.969Z,928.39
2019-04-27T05:43:33.978Z,928.41
2019-04-27T05:44:34.046Z,928.39
2019-04-27T05:45:34.093Z,928.42
2019-04-27T05:46:35.540Z,928.41
2019-04-27T05:47:34.179Z,928.40
2019-04-27T05:48:34.228Z,928.38
2019-04-27T05:49:36.268Z,928.36
2019-04-27T05:50:38.769Z,928.34
2019-04-27T05:51:37.058Z,928.35
2019-04-27T05:52:34.447Z,928.40
2019-04-27T05:53:34.441Z,928.36
2019-04-27T05:54:34.503Z,928.35
2019-04-27T05:55:34.540Z,928.35
2019-04-27T05:56:34.599Z,928.31
2019-04-27T05:57:34.620Z,928.30
2019-04-27T05:58:34.707Z,928.30
2019-04-27T05:59:34.721Z,928.28
2019-04-27T06:00:34.784Z,928.26
2019-04-27T06:01:34.815Z,928.27
2019-04-27T06:02:34.856Z,928.28
2019-04-27T06:03:34.888Z,928.27
2019-04-27T06:04:34.963Z,928.24
2019-04-27T06:05:35.010Z,928.26
2019-04-27T06:06:35.065Z,928.31
2019-04-27T06:07:35.096Z,928.27
2019-04-27T06:08:35.176Z,928.28
2019-04-27T06:09:35.216Z,928.27
2019-04-27T06:10:35.240Z,928.25
2019-04-27T06:11:35.266Z,928.29
2019-04-27T06:12:35.308Z,928.27
2019-04-27T06:13:35.348Z,928.26
2019-04-27T06:14:35.399Z,928.24
2019-04-27T06:15:35.490Z,928.27
2019-04-27T06:16:35.487Z,928.27
2019-04-27T06:17:35.549Z,928.25
2019-04-27T06:18:35.574Z,928.26
2019-04-27T06:19:35.646Z,928.31
2019-04-27T06:20:48.381Z,928.29
2019-04-27T06:21:35.744Z,928.29
2019-04-27T06:22:35.790Z,928.28
2019-04-27T06:23:35.819Z,928.29
2019-04-27T06:24:35.871Z,928.26
2019-04-27T06:25:35.891Z,928.23
2019-04-27T06:26:35.971Z,928.21
2019-04-27T06:27:36.050Z,928.22
2019-04-27T06:28:36.054Z,928.15
2019-04-27T06:29:36.099Z,928.17
2019-04-27T06:30:36.179Z,928.16
2019-04-27T06:31:36.164Z,928.13
2019-04-27T06:32:36.240Z,928.11
2019-04-27T06:33:36.247Z,928.13
2019-04-27T06:34:36.307Z,928.11
2019-04-27T06:35:36.349Z,928.09
2019-04-27T06:36:36.430Z,928.09
2019-04-27T06:37:36.439Z,928.09
2019-04-27T06:38:36.641Z,928.09
2019-04-27T06:39:36.541Z,928.08
2019-04-27T06:40:36.577Z,928.07
2019-04-27T06:41:36.630Z,928.05
2019-04-27T06:42:36.679Z,928.08
2019-04-27T06:43:36.726Z,928.12
2019-04-27T06:44:36.769Z,928.10
2019-04-27T06:45:38.641Z,928.12
2019-04-27T06:46:38.553Z,928.10
2019-04-27T06:47:39.582Z,928.07
2019-04-27T06:48:36.958Z,928.05
2019-04-27T06:49:36.959Z,928.05
2019-04-27T06:50:38.843Z,928.01
2019-04-27T06:51:37.077Z,928.01
2019-04-27T06:52:38.657Z,928.03
2019-04-27T06:53:37.170Z,928.07
2019-04-27T06:54:38.850Z,928.10
2019-04-27T06:55:39.105Z,928.05
2019-04-27T06:56:38.975Z,928.09
2019-04-27T06:57:39.102Z,928.05
2019-04-27T06:58:38.913Z,928.07
2019-04-27T06:59:37.471Z,928.05
2019-04-27T07:00:37.460Z,928.05
2019-04-27T07:01:38.984Z,928.04
2019-04-27T07:02:39.180Z,928.08
2019-04-27T07:03:39.392Z,928.07
2019-04-27T07:04:39.133Z,928.07
2019-04-27T07:05:38.792Z,928.08
2019-04-27T07:06:52.282Z,928.09
2019-04-27T07:07:39.522Z,928.12
2019-04-27T07:08:39.925Z,928.14
2019-04-27T07:09:39.269Z,928.13
2019-04-27T07:10:39.169Z,928.15
2019-04-27T07:11:39.424Z,928.18
2019-04-27T07:12:38.737Z,928.16
2019-04-27T07:13:39.038Z,928.14
2019-04-27T07:14:51.779Z,928.12
2019-04-27T07:15:38.731Z,928.12
2019-04-27T07:16:39.186Z,928.14
2019-04-27T07:17:38.891Z,928.13
2019-04-27T07:18:39.705Z,928.15
2019-04-27T07:19:39.699Z,928.13
2019-04-27T07:20:38.841Z,928.17
2019-04-27T07:21:39.964Z,928.17
2019-04-27T07:22:39.706Z,928.18
2019-04-27T07:23:38.909Z,928.19
2019-04-27T07:24:38.816Z,928.16
2019-04-27T07:25:38.928Z,928.18
2019-04-27T07:26:39.224Z,928.19
2019-04-27T07:27:39.497Z,928.17
2019-04-27T07:28:39.272Z,928.17
2019-04-27T07:29:43.131Z,928.17
2019-04-27T07:30:38.903Z,928.15
2019-04-27T07:31:40.027Z,928.19
2019-04-27T07:32:39.176Z,928.21
2019-04-27T07:33:39.606Z,928.19
2019-04-27T07:34:39.033Z,928.23
2019-04-27T07:35:39.355Z,928.24
2019-04-27T07:36:39.468Z,928.24
2019-04-27T07:37:39.371Z,928.23
2019-04-27T07:38:39.515Z,928.21
2019-04-27T07:39:39.222Z,928.16
2019-04-27T07:40:41.829Z,928.16
2019-04-27T07:41:39.298Z,928.15
2019-04-27T07:42:41.363Z,928.11
2019-04-27T07:43:39.745Z,928.13
2019-04-27T07:44:39.447Z,928.12
2019-04-27T07:45:39.661Z,928.11
2019-04-27T07:46:39.551Z,928.14
2019-04-27T07:47:39.559Z,928.09
2019-04-27T07:48:39.649Z,928.09
2019-04-27T07:49:39.647Z,928.12
2019-04-27T07:50:39.702Z,928.13
2019-04-27T07:51:39.757Z,928.16
2019-04-27T07:52:40.544Z,928.19
2019-04-27T07:53:39.838Z,928.17
2019-04-27T07:54:41.004Z,928.25
2019-04-27T07:55:39.916Z,928.22
2019-04-27T07:56:39.987Z,928.22
2019-04-27T07:57:40.092Z,928.24
2019-04-27T07:58:40.064Z,928.23
2019-04-27T07:59:42.100Z,928.19
2019-04-27T08:00:40.137Z,928.20
2019-04-27T08:01:40.207Z,928.18
2019-04-27T08:02:40.218Z,928.22
2019-04-27T08:03:40.293Z,928.29
2019-04-27T08:04:40.324Z,928.30
2019-04-27T08:05:40.409Z,928.34
2019-04-27T08:06:40.389Z,928.34
2019-04-27T08:07:40.461Z,928.37
2019-04-27T08:08:40.523Z,928.38
2019-04-27T08:09:40.560Z,928.38
2019-04-27T08:10:40.590Z,928.36
2019-04-27T08:11:40.637Z,928.39
2019-04-27T08:12:40.673Z,928.34
2019-04-27T08:13:40.729Z,928.39
2019-04-27T08:14:40.741Z,928.38
2019-04-27T08:15:40.815Z,928.41
2019-04-27T08:16:40.896Z,928.39
2019-04-27T08:17:42.902Z,928.41
2019-04-27T08:18:40.954Z,928.42
2019-04-27T08:19:40.997Z,928.46
2019-04-27T08:20:41.012Z,928.44
2019-04-27T08:21:44.495Z,928.43
2019-04-27T08:22:41.112Z,928.43
2019-04-27T08:23:41.174Z,928.45
2019-04-27T08:24:41.206Z,928.44
2019-04-27T08:25:41.274Z,928.45
2019-04-27T08:26:41.291Z,928.44
2019-04-27T08:27:41.354Z,928.45
2019-04-27T08:28:41.396Z,928.48
2019-04-27T08:29:41.456Z,928.48
2019-04-27T08:30:41.471Z,928.51
2019-04-27T08:31:41.527Z,928.53
2019-04-27T08:32:41.706Z,928.54
2019-04-27T08:33:41.635Z,928.51
2019-04-27T08:34:41.653Z,928.52
2019-04-27T08:35:41.715Z,928.55
2019-04-27T08:36:41.785Z,928.56
2019-04-27T08:37:41.807Z,928.58
2019-04-27T08:38:41.910Z,928.58
2019-04-27T08:39:41.887Z,928.59
2019-04-27T08:40:41.925Z,928.59
2019-04-27T08:41:41.979Z,928.62
2019-04-27T08:42:42.024Z,928.60
2019-04-27T08:43:42.085Z,928.62
2019-04-27T08:44:42.104Z,928.58
2019-04-27T08:45:42.144Z,928.59
2019-04-27T08:46:42.177Z,928.60
2019-04-27T08:47:42.246Z,928.58
2019-04-27T08:48:42.282Z,928.64
2019-04-27T08:49:42.318Z,928.65
2019-04-27T08:50:42.365Z,928.65
2019-04-27T08:51:42.408Z,928.67
2019-04-27T08:52:42.445Z,928.67
2019-04-27T08:53:42.514Z,928.72
2019-04-27T08:54:42.546Z,928.74
2019-04-27T08:55:42.590Z,928.67
2019-04-27T08:56:42.633Z,928.71
2019-04-27T08:57:42.723Z,928.67
2019-04-27T08:58:42.733Z,928.72
2019-04-27T08:59:42.793Z,928.75
2019-04-27T09:00:42.811Z,928.75
2019-04-27T09:01:42.857Z,928.75
2019-04-27T09:02:47.030Z,928.75
2019-04-27T09:03:42.957Z,928.75
2019-04-27T09:04:42.977Z,928.77
2019-04-27T09:05:43.018Z,928.75
2019-04-27T09:06:43.090Z,928.78
2019-04-27T09:07:43.130Z,928.74
2019-04-27T09:08:43.165Z,928.78
2019-04-27T09:09:43.219Z,928.76
2019-04-27T09:10:43.283Z,928.79
2019-04-27T09:11:43.299Z,928.79
2019-04-27T09:12:43.352Z,928.78
2019-04-27T09:13:43.396Z,928.77
2019-04-27T09:14:43.436Z,928.76
2019-04-27T09:15:43.460Z,928.83
2019-04-27T09:16:43.529Z,928.79
2019-04-27T09:17:43.551Z,928.84
2019-04-27T09:18:43.622Z,928.83
2019-04-27T09:19:43.632Z,928.82
2019-04-27T09:20:43.704Z,928.83
2019-04-27T09:21:43.733Z,928.81
2019-04-27T09:22:43.788Z,928.84
2019-04-27T09:23:43.822Z,928.87
2019-04-27T09:24:43.900Z,928.82
2019-04-27T09:25:43.925Z,928.86
2019-04-27T09:26:44.020Z,928.85
2019-04-27T09:27:44.027Z,928.87
2019-04-27T09:28:44.037Z,928.84
2019-04-27T09:29:44.119Z,928.85
2019-04-27T09:30:44.143Z,928.84
2019-04-27T09:31:44.221Z,928.82
2019-04-27T09:32:44.224Z,928.84
2019-04-27T09:33:44.273Z,928.86
2019-04-27T09:34:44.307Z,928.88
2019-04-27T09:35:44.396Z,928.85
2019-04-27T09:36:45.901Z,928.91
2019-04-27T09:37:45.851Z,928.87
2019-04-27T09:38:46.286Z,928.86
2019-04-27T09:39:46.072Z,928.90
2019-04-27T09:40:46.424Z,928.88
2019-04-27T09:41:45.983Z,928.88
2019-04-27T09:42:46.373Z,928.94
2019-04-27T09:43:46.516Z,928.85
2019-04-27T09:44:45.632Z,928.89
2019-04-27T09:45:44.829Z,928.88
2019-04-27T09:46:44.839Z,928.89
2019-04-27T09:47:46.690Z,928.86
2019-04-27T09:48:46.592Z,928.84
2019-04-27T09:49:46.078Z,928.85
2019-04-27T09:50:46.640Z,928.89
2019-04-27T09:51:46.009Z,928.88
2019-04-27T09:52:45.954Z,928.89
2019-04-27T09:53:45.857Z,928.86
2019-04-27T09:54:45.216Z,928.87
2019-04-27T09:55:46.851Z,928.86
2019-04-27T09:56:46.763Z,928.86
2019-04-27T09:57:46.497Z,928.87
2019-04-27T09:58:47.009Z,928.88
2019-04-27T09:59:46.066Z,928.89
2019-04-27T10:00:45.841Z,928.92
2019-04-27T10:01:46.522Z,928.87
2019-04-27T10:02:46.569Z,928.88
2019-04-27T10:03:46.377Z,928.86
2019-04-27T10:04:46.207Z,928.84
2019-04-27T10:05:46.001Z,928.84
2019-04-27T10:06:46.199Z,928.85
2019-04-27T10:07:47.579Z,928.87
2019-04-27T10:08:45.861Z,928.86
2019-04-27T10:09:47.319Z,928.87
2019-04-27T10:10:47.828Z,928.90
2019-04-27T10:11:45.980Z,928.90
2019-04-27T10:12:46.634Z,928.95
2019-04-27T10:13:46.524Z,928.92
2019-04-27T10:14:47.731Z,928.98
2019-04-27T10:15:46.175Z,928.99
2019-04-27T10:16:46.930Z,929.01
2019-04-27T10:17:46.297Z,929.05
2019-04-27T10:18:46.313Z,929.02
2019-04-27T10:19:46.349Z,929.05
2019-04-27T10:20:58.318Z,929.04
2019-04-27T10:21:46.793Z,929.05
2019-04-27T10:22:46.544Z,929.04
2019-04-27T10:23:47.039Z,929.08
2019-04-27T10:24:46.584Z,929.05
2019-04-27T10:25:46.673Z,929.06
2019-04-27T10:26:46.680Z,929.08
2019-04-27T10:27:46.742Z,929.13
2019-04-27T10:28:46.753Z,929.10
2019-04-27T10:29:46.938Z,929.16
2019-04-27T10:30:46.855Z,929.21
2019-04-27T10:31:48.217Z,929.22
2019-04-27T10:32:46.985Z,929.21
2019-04-27T10:33:47.021Z,929.21
2019-04-27T10:34:47.106Z,929.25
2019-04-27T10:35:47.408Z,929.28
2019-04-27T10:36:47.170Z,929.29
2019-04-27T10:37:47.217Z,929.31
2019-04-27T10:38:47.277Z,929.33
2019-04-27T10:39:47.318Z,929.30
2019-04-27T10:40:47.335Z,929.29
2019-04-27T10:41:47.399Z,929.25
2019-04-27T10:42:47.457Z,929.29
2019-04-27T10:43:47.525Z,929.25
2019-04-27T10:44:47.546Z,929.29
2019-04-27T10:45:47.643Z,929.28
2019-04-27T10:46:47.675Z,929.29
2019-04-27T10:47:49.500Z,929.32
2019-04-27T10:48:47.736Z,929.37
2019-04-27T10:49:48.465Z,929.32
2019-04-27T10:50:47.841Z,929.32
2019-04-27T10:51:47.917Z,929.36
2019-04-27T10:52:53.586Z,929.34
2019-04-27T10:53:48.019Z,929.39
2019-04-27T10:54:48.072Z,929.41
2019-04-27T10:55:48.137Z,929.38
2019-04-27T10:56:48.188Z,929.39
2019-04-27T10:57:48.263Z,929.37
2019-04-27T10:58:48.306Z,929.36
2019-04-27T10:59:48.358Z,929.35
2019-04-27T11:00:48.355Z,929.34
2019-04-27T11:01:48.427Z,929.33
2019-04-27T11:02:48.473Z,929.32
2019-04-27T11:03:48.556Z,929.35
2019-04-27T11:04:48.560Z,929.32
2019-04-27T11:05:48.621Z,929.38
2019-04-27T11:06:48.677Z,929.37
2019-04-27T11:07:48.731Z,929.39
2019-04-27T11:08:48.781Z,929.36
2019-04-27T11:09:48.811Z,929.42
2019-04-27T11:10:48.882Z,929.39
2019-04-27T11:11:48.929Z,929.41
2019-04-27T11:12:48.976Z,929.43
2019-04-27T11:13:49.031Z,929.43
2019-04-27T11:14:49.124Z,929.42
2019-04-27T11:15:49.185Z,929.46
2019-04-27T11:16:49.165Z,929.46
2019-04-27T11:17:49.265Z,929.44
2019-04-27T11:18:49.283Z,929.40
2019-04-27T11:19:49.352Z,929.41
2019-04-27T11:20:49.404Z,929.43
2019-04-27T11:21:49.429Z,929.47
2019-04-27T11:22:49.499Z,929.41
2019-04-27T11:23:49.544Z,929.45
2019-04-27T11:24:49.593Z,929.51
2019-04-27T11:25:49.667Z,929.48
2019-04-27T11:26:49.706Z,929.52
2019-04-27T11:27:49.750Z,929.51
2019-04-27T11:28:49.798Z,929.51
2019-04-27T11:29:49.884Z,929.53
2019-04-27T11:30:49.898Z,929.56
2019-04-27T11:31:49.944Z,929.56
2019-04-27T11:32:50.068Z,929.59
2019-04-27T11:33:50.057Z,929.55
2019-04-27T11:34:50.089Z,929.56
2019-04-27T11:35:50.149Z,929.60
2019-04-27T11:36:50.218Z,929.61
2019-04-27T11:37:50.274Z,929.57
2019-04-27T11:38:50.333Z,929.58
2019-04-27T11:39:50.387Z,929.62
2019-04-27T11:40:50.442Z,929.60
2019-04-27T11:41:50.487Z,929.59
2019-04-27T11:42:50.545Z,929.61
2019-04-27T11:43:50.591Z,929.62
2019-04-27T11:44:50.679Z,929.66
2019-04-27T11:45:50.681Z,929.62
2019-04-27T11:46:50.792Z,929.59
2019-04-27T11:47:50.806Z,929.60
2019-04-27T11:48:50.851Z,929.65
2019-04-27T11:49:50.915Z,929.64
2019-04-27T11:50:50.964Z,929.63
2019-04-27T11:51:51.021Z,929.69
2019-04-27T11:52:51.064Z,929.66
2019-04-27T11:53:51.147Z,929.68
2019-04-27T11:54:51.152Z,929.70
2019-04-27T11:55:51.235Z,929.69
2019-04-27T11:56:51.253Z,929.68
2019-04-27T11:57:51.316Z,929.65
2019-04-27T11:58:51.368Z,929.67
2019-04-27T11:59:51.423Z,929.72
2019-04-27T12:00:51.481Z,929.68
2019-04-27T12:01:51.554Z,929.72
2019-04-27T12:02:51.592Z,929.73
2019-04-27T12:03:51.659Z,929.75
2019-04-27T12:04:51.709Z,929.74
2019-04-27T12:05:51.777Z,929.76
2019-04-27T12:06:51.824Z,929.82
2019-04-27T12:07:51.861Z,929.80
2019-04-27T12:08:51.903Z,929.78
2019-04-27T12:09:51.986Z,929.82
2019-04-27T12:10:52.037Z,929.80
2019-04-27T12:11:52.063Z,929.84
2019-04-27T12:12:52.155Z,929.81
2019-04-27T12:13:52.237Z,929.76
2019-04-27T12:14:52.261Z,929.77
2019-04-27T12:15:52.312Z,929.75
2019-04-27T12:16:52.362Z,929.80
2019-04-27T12:17:52.417Z,929.79
2019-04-27T12:18:52.474Z,929.77
2019-04-27T12:19:52.620Z,929.80
2019-04-27T12:20:52.636Z,929.80
2019-04-27T12:21:52.634Z,929.81
2019-04-27T12:22:52.686Z,929.82
2019-04-27T12:23:52.754Z,929.83
2019-04-27T12:24:52.816Z,929.84
2019-04-27T12:25:52.863Z,929.78
2019-04-27T12:26:52.923Z,929.77
2019-04-27T12:27:53.003Z,929.78
2019-04-27T12:28:53.022Z,929.82